CEB643 RPLL-RPVP
Flight info
| Callsign | CEB643 |
|---|---|
| Flight time | 0h 58m |
| Altitude | 34000 |
| Route | BUCAL2R BUCAL M646 NOMYO NOMYO2W |
| Aircraft | A339/H-SADE1E2E3GHIJ3J5M1P2RWXY/LB2D1 |
Departure
| Time | 2026-04-21 12:37 |
|---|---|
| Airport | Ninoy Aquino International Airport (RPLL) |
Arrival
| Time | 2026-04-21 13:36 |
|---|---|
| Airport | Puerto Princesa International Airport / PAF Antonio Bautista Air Base (RPVP) |
| Time | Latitude | Longitude | Altitude | Speed | Heading |
|---|---|---|---|---|---|
| 2026-04-21 12:09 | 14.52095 | 121.01090 | 90 ft | 0 kts | 44° |
| 2026-04-21 12:20 | 14.52093 | 121.01089 | 90 ft | 1 kts | 44° |
| 2026-04-21 12:21 | 14.52082 | 121.01078 | 90 ft | 2 kts | 43° |
| 2026-04-21 12:21 | 14.52072 | 121.01067 | 90 ft | 2 kts | 44° |
| 2026-04-21 12:21 | 14.52061 | 121.01057 | 90 ft | 2 kts | 44° |
| 2026-04-21 12:21 | 14.52050 | 121.01045 | 90 ft | 2 kts | 44° |
| 2026-04-21 12:22 | 14.52039 | 121.01035 | 90 ft | 2 kts | 44° |
| 2026-04-21 12:22 | 14.52030 | 121.01023 | 90 ft | 2 kts | 70° |
| 2026-04-21 12:22 | 14.52027 | 121.01008 | 90 ft | 2 kts | 97° |
| 2026-04-21 12:22 | 14.52032 | 121.00993 | 90 ft | 2 kts | 123° |
| 2026-04-21 12:23 | 14.52037 | 121.00987 | 90 ft | 1 kts | 135° |
| 2026-04-21 12:23 | 14.52038 | 121.00984 | 90 ft | 0 kts | 134° |
| 2026-04-21 12:27 | 14.52034 | 121.00989 | 90 ft | 2 kts | 132° |
| 2026-04-21 12:27 | 14.52012 | 121.01014 | 90 ft | 6 kts | 132° |
| 2026-04-21 12:27 | 14.51971 | 121.01059 | 90 ft | 10 kts | 134° |
| 2026-04-21 12:27 | 14.51913 | 121.01118 | 90 ft | 13 kts | 135° |
| 2026-04-21 12:28 | 14.51842 | 121.01191 | 90 ft | 14 kts | 134° |
| 2026-04-21 12:28 | 14.51769 | 121.01268 | 90 ft | 15 kts | 134° |
| 2026-04-21 12:28 | 14.51691 | 121.01348 | 90 ft | 15 kts | 135° |
| 2026-04-21 12:28 | 14.51613 | 121.01429 | 90 ft | 16 kts | 134° |
| 2026-04-21 12:29 | 14.51533 | 121.01512 | 90 ft | 16 kts | 135° |
| 2026-04-21 12:29 | 14.51452 | 121.01596 | 90 ft | 16 kts | 134° |
| 2026-04-21 12:29 | 14.51369 | 121.01681 | 90 ft | 16 kts | 135° |
| 2026-04-21 12:29 | 14.51286 | 121.01767 | 90 ft | 16 kts | 135° |
| 2026-04-21 12:30 | 14.51205 | 121.01851 | 90 ft | 16 kts | 135° |
| 2026-04-21 12:30 | 14.51126 | 121.01932 | 90 ft | 15 kts | 135° |
| 2026-04-21 12:30 | 14.51072 | 121.01984 | 90 ft | 4 kts | 152° |
| 2026-04-21 12:30 | 14.51037 | 121.01970 | 90 ft | 6 kts | 227° |
| 2026-04-21 12:31 | 14.51004 | 121.01922 | 90 ft | 10 kts | 239° |
| 2026-04-21 12:31 | 14.50959 | 121.01842 | 90 ft | 14 kts | 240° |
| 2026-04-21 12:31 | 14.50902 | 121.01739 | 90 ft | 18 kts | 240° |
| 2026-04-21 12:31 | 14.50832 | 121.01614 | 90 ft | 21 kts | 240° |
| 2026-04-21 12:32 | 14.50754 | 121.01473 | 90 ft | 24 kts | 240° |
| 2026-04-21 12:32 | 14.50668 | 121.01318 | 90 ft | 24 kts | 240° |
| 2026-04-21 12:32 | 14.50582 | 121.01164 | 90 ft | 24 kts | 240° |
| 2026-04-21 12:32 | 14.50500 | 121.01015 | 90 ft | 23 kts | 240° |
| 2026-04-21 12:33 | 14.50418 | 121.00870 | 90 ft | 23 kts | 239° |
| 2026-04-21 12:33 | 14.50339 | 121.00727 | 90 ft | 22 kts | 240° |
| 2026-04-21 12:33 | 14.50262 | 121.00588 | 90 ft | 22 kts | 240° |
| 2026-04-21 12:33 | 14.50185 | 121.00450 | 90 ft | 21 kts | 239° |
| 2026-04-21 12:34 | 14.50111 | 121.00315 | 90 ft | 21 kts | 240° |
| 2026-04-21 12:34 | 14.50037 | 121.00183 | 90 ft | 21 kts | 239° |
| 2026-04-21 12:34 | 14.49965 | 121.00054 | 90 ft | 18 kts | 241° |
| 2026-04-21 12:34 | 14.49931 | 120.99988 | 90 ft | 5 kts | 240° |
| 2026-04-21 12:35 | 14.49908 | 120.99964 | 90 ft | 4 kts | 205° |
| 2026-04-21 12:35 | 14.49883 | 120.99966 | 90 ft | 4 kts | 159° |
| 2026-04-21 12:35 | 14.49845 | 120.99983 | 90 ft | 7 kts | 155° |
| 2026-04-21 12:35 | 14.49809 | 121.00031 | 90 ft | 10 kts | 91° |
| 2026-04-21 12:36 | 14.49836 | 121.00103 | 90 ft | 11 kts | 62° |
| 2026-04-21 12:36 | 14.49922 | 121.00260 | 90 ft | 52 kts | 60° |
| 2026-04-21 12:36 | 14.50212 | 121.00781 | 90 ft | 115 kts | 61° |
| 2026-04-21 12:36 | 14.50703 | 121.01666 | 100 ft | 165 kts | 61° |
| 2026-04-21 12:37 | 14.51295 | 121.02718 | 647 ft | 166 kts | 62° |
| 2026-04-21 12:37 | 14.51821 | 121.03700 | 1374 ft | 156 kts | 63° |
| 2026-04-21 12:37 | 14.52328 | 121.04678 | 1950 ft | 157 kts | 63° |
| 2026-04-21 12:37 | 14.52877 | 121.05732 | 2261 ft | 176 kts | 63° |
| 2026-04-21 12:38 | 14.53502 | 121.06891 | 2618 ft | 194 kts | 61° |
| 2026-04-21 12:38 | 14.54224 | 121.08148 | 3007 ft | 213 kts | 60° |
| 2026-04-21 12:38 | 14.55020 | 121.09517 | 3412 ft | 231 kts | 60° |
| 2026-04-21 12:38 | 14.55852 | 121.10991 | 3823 ft | 249 kts | 64° |
| 2026-04-21 12:39 | 14.56293 | 121.12763 | 4291 ft | 263 kts | 91° |
| 2026-04-21 12:39 | 14.55870 | 121.14575 | 5037 ft | 268 kts | 116° |
| 2026-04-21 12:39 | 14.54705 | 121.16099 | 5790 ft | 272 kts | 133° |
| 2026-04-21 12:39 | 14.53356 | 121.17472 | 6524 ft | 276 kts | 134° |
| 2026-04-21 12:40 | 14.51972 | 121.18881 | 7252 ft | 280 kts | 133° |
| 2026-04-21 12:40 | 14.50573 | 121.20316 | 7976 ft | 283 kts | 133° |
| 2026-04-21 12:40 | 14.49191 | 121.21743 | 8682 ft | 286 kts | 132° |
| 2026-04-21 12:40 | 14.47618 | 121.23002 | 9333 ft | 294 kts | 152° |
| 2026-04-21 12:41 | 14.45603 | 121.23522 | 10009 ft | 303 kts | 176° |
| 2026-04-21 12:41 | 14.43501 | 121.23157 | 10543 ft | 315 kts | 201° |
| 2026-04-21 12:41 | 14.41643 | 121.21865 | 10832 ft | 334 kts | 225° |
| 2026-04-21 12:41 | 14.40022 | 121.20055 | 11163 ft | 349 kts | 221° |
| 2026-04-21 12:42 | 14.38093 | 121.18476 | 11667 ft | 357 kts | 215° |
| 2026-04-21 12:42 | 14.36057 | 121.16975 | 12319 ft | 360 kts | 214° |
| 2026-04-21 12:42 | 14.34014 | 121.15472 | 13006 ft | 362 kts | 215° |
| 2026-04-21 12:42 | 14.31960 | 121.13935 | 13650 ft | 365 kts | 216° |
| 2026-04-21 12:43 | 14.29914 | 121.12381 | 14293 ft | 367 kts | 216° |
| 2026-04-21 12:43 | 14.27868 | 121.10811 | 14922 ft | 369 kts | 216° |
| 2026-04-21 12:43 | 14.25792 | 121.09208 | 15549 ft | 372 kts | 217° |
| 2026-04-21 12:43 | 14.23735 | 121.07615 | 16129 ft | 374 kts | 217° |
| 2026-04-21 12:44 | 14.21636 | 121.05986 | 16717 ft | 376 kts | 217° |
| 2026-04-21 12:44 | 14.19559 | 121.04374 | 17271 ft | 379 kts | 217° |
| 2026-04-21 12:44 | 14.17432 | 121.02722 | 17843 ft | 380 kts | 217° |
| 2026-04-21 12:44 | 14.15304 | 121.01067 | 18410 ft | 382 kts | 217° |
| 2026-04-21 12:45 | 14.13187 | 120.99422 | 18964 ft | 384 kts | 217° |
| 2026-04-21 12:45 | 14.11128 | 120.97822 | 19490 ft | 385 kts | 217° |
| 2026-04-21 12:45 | 14.08966 | 120.96143 | 20001 ft | 388 kts | 217° |
| 2026-04-21 12:45 | 14.06983 | 120.94604 | 20443 ft | 390 kts | 217° |
| 2026-04-21 12:46 | 14.04815 | 120.92921 | 20951 ft | 392 kts | 217° |
| 2026-04-21 12:46 | 14.02635 | 120.91230 | 21424 ft | 394 kts | 217° |
| 2026-04-21 12:46 | 14.00447 | 120.89533 | 21871 ft | 396 kts | 217° |
| 2026-04-21 12:46 | 13.98207 | 120.87795 | 22341 ft | 398 kts | 217° |
| 2026-04-21 12:47 | 13.96006 | 120.86089 | 22799 ft | 400 kts | 217° |
| 2026-04-21 12:47 | 13.93747 | 120.84338 | 23242 ft | 403 kts | 217° |
| 2026-04-21 12:47 | 13.91475 | 120.82576 | 23697 ft | 406 kts | 217° |
| 2026-04-21 12:47 | 13.89184 | 120.80801 | 24162 ft | 408 kts | 217° |
| 2026-04-21 12:48 | 13.86885 | 120.79019 | 24619 ft | 411 kts | 217° |
| 2026-04-21 12:48 | 13.84578 | 120.77232 | 25066 ft | 413 kts | 217° |
| 2026-04-21 12:48 | 13.82280 | 120.75452 | 25506 ft | 416 kts | 217° |
| 2026-04-21 12:48 | 13.79952 | 120.73650 | 25917 ft | 419 kts | 217° |
| 2026-04-21 12:49 | 13.77613 | 120.71838 | 26315 ft | 422 kts | 217° |
| 2026-04-21 12:49 | 13.75258 | 120.70016 | 26719 ft | 424 kts | 217° |
| 2026-04-21 12:49 | 13.72875 | 120.68172 | 27116 ft | 427 kts | 218° |
| 2026-04-21 12:49 | 13.70499 | 120.66334 | 27512 ft | 430 kts | 218° |
| 2026-04-21 12:50 | 13.68104 | 120.64481 | 27897 ft | 432 kts | 218° |
| 2026-04-21 12:50 | 13.65683 | 120.62611 | 28278 ft | 435 kts | 218° |
| 2026-04-21 12:50 | 13.63230 | 120.60750 | 28652 ft | 438 kts | 216° |
| 2026-04-21 12:50 | 13.60667 | 120.59010 | 29028 ft | 441 kts | 212° |
| 2026-04-21 12:51 | 13.58028 | 120.57423 | 29403 ft | 443 kts | 210° |
| 2026-04-21 12:51 | 13.55280 | 120.55973 | 29766 ft | 446 kts | 206° |
| 2026-04-21 12:51 | 13.52433 | 120.54595 | 30137 ft | 448 kts | 206° |
| 2026-04-21 12:51 | 13.49610 | 120.53238 | 30485 ft | 450 kts | 206° |
| 2026-04-21 12:52 | 13.46747 | 120.51863 | 30830 ft | 453 kts | 206° |
| 2026-04-21 12:52 | 13.43910 | 120.50500 | 31163 ft | 455 kts | 206° |
| 2026-04-21 12:52 | 13.41004 | 120.49101 | 31502 ft | 458 kts | 206° |
| 2026-04-21 12:52 | 13.38122 | 120.47714 | 31816 ft | 460 kts | 206° |
| 2026-04-21 12:53 | 13.35212 | 120.46314 | 32131 ft | 463 kts | 206° |
| 2026-04-21 12:53 | 13.32288 | 120.44908 | 32449 ft | 465 kts | 206° |
| 2026-04-21 12:53 | 13.29331 | 120.43488 | 32805 ft | 466 kts | 206° |
| 2026-04-21 12:53 | 13.26405 | 120.42084 | 33250 ft | 466 kts | 206° |
| 2026-04-21 12:54 | 13.23451 | 120.40668 | 33710 ft | 466 kts | 206° |
| 2026-04-21 12:54 | 13.20527 | 120.39265 | 33904 ft | 467 kts | 206° |
| 2026-04-21 12:54 | 13.17653 | 120.37885 | 33906 ft | 467 kts | 206° |
| 2026-04-21 12:55 | 13.11767 | 120.35062 | 33903 ft | 468 kts | 206° |
| 2026-04-21 12:55 | 13.05823 | 120.32212 | 33904 ft | 468 kts | 206° |
| 2026-04-21 12:56 | 12.99931 | 120.29388 | 33912 ft | 468 kts | 206° |
| 2026-04-21 12:56 | 12.94017 | 120.26555 | 33906 ft | 468 kts | 206° |
| 2026-04-21 12:57 | 12.88118 | 120.23730 | 33894 ft | 467 kts | 206° |
| 2026-04-21 12:57 | 12.82176 | 120.20886 | 33895 ft | 467 kts | 206° |
| 2026-04-21 12:58 | 12.76280 | 120.18064 | 33899 ft | 466 kts | 206° |
| 2026-04-21 12:58 | 12.70414 | 120.15260 | 33908 ft | 466 kts | 206° |
| 2026-04-21 12:59 | 12.64511 | 120.12440 | 33904 ft | 466 kts | 206° |
| 2026-04-21 12:59 | 12.58666 | 120.09648 | 33901 ft | 466 kts | 206° |
| 2026-04-21 13:00 | 12.52775 | 120.06834 | 33903 ft | 466 kts | 206° |
| 2026-04-21 13:00 | 12.46860 | 120.04012 | 33901 ft | 466 kts | 206° |
| 2026-04-21 13:01 | 12.40986 | 120.01212 | 33903 ft | 465 kts | 206° |
| 2026-04-21 13:01 | 12.35114 | 119.98412 | 33905 ft | 465 kts | 206° |
| 2026-04-21 13:02 | 12.29255 | 119.95619 | 33906 ft | 465 kts | 206° |
| 2026-04-21 13:02 | 12.20432 | 119.91419 | 33904 ft | 466 kts | 206° |
| 2026-04-21 13:03 | 12.14557 | 119.88624 | 33901 ft | 465 kts | 206° |
| 2026-04-21 13:03 | 12.08646 | 119.85812 | 33896 ft | 466 kts | 206° |
| 2026-04-21 13:04 | 12.02778 | 119.83021 | 33885 ft | 465 kts | 205° |
| 2026-04-21 13:04 | 11.96922 | 119.80239 | 33883 ft | 464 kts | 206° |
| 2026-04-21 13:05 | 11.91042 | 119.77447 | 33880 ft | 464 kts | 206° |
| 2026-04-21 13:05 | 11.85159 | 119.74652 | 33780 ft | 466 kts | 206° |
| 2026-04-21 13:06 | 11.82251 | 119.73271 | 33386 ft | 465 kts | 206° |
| 2026-04-21 13:06 | 11.79395 | 119.71915 | 32879 ft | 463 kts | 205° |
| 2026-04-21 13:06 | 11.76482 | 119.70532 | 32303 ft | 462 kts | 205° |
| 2026-04-21 13:06 | 11.73570 | 119.69151 | 31750 ft | 461 kts | 205° |
| 2026-04-21 13:07 | 11.70670 | 119.67776 | 31363 ft | 455 kts | 205° |
| 2026-04-21 13:07 | 11.67810 | 119.66432 | 30985 ft | 450 kts | 205° |
| 2026-04-21 13:07 | 11.64965 | 119.65112 | 30620 ft | 445 kts | 205° |
| 2026-04-21 13:07 | 11.62172 | 119.63820 | 30248 ft | 440 kts | 205° |
| 2026-04-21 13:08 | 11.59383 | 119.62528 | 29868 ft | 435 kts | 205° |
| 2026-04-21 13:08 | 11.56632 | 119.61253 | 29476 ft | 431 kts | 205° |
| 2026-04-21 13:08 | 11.53914 | 119.59994 | 29091 ft | 427 kts | 205° |
| 2026-04-21 13:08 | 11.51215 | 119.58742 | 28717 ft | 423 kts | 205° |
| 2026-04-21 13:09 | 11.48555 | 119.57509 | 28358 ft | 419 kts | 205° |
| 2026-04-21 13:09 | 11.45918 | 119.56286 | 27983 ft | 416 kts | 205° |
| 2026-04-21 13:09 | 11.43267 | 119.55057 | 27613 ft | 412 kts | 205° |
| 2026-04-21 13:09 | 11.40663 | 119.53849 | 27214 ft | 409 kts | 204° |
| 2026-04-21 13:10 | 11.38101 | 119.52661 | 26836 ft | 406 kts | 204° |
| 2026-04-21 13:10 | 11.35520 | 119.51466 | 26457 ft | 403 kts | 204° |
| 2026-04-21 13:10 | 11.32981 | 119.50290 | 26081 ft | 400 kts | 204° |
| 2026-04-21 13:10 | 11.30446 | 119.49115 | 25711 ft | 397 kts | 204° |
| 2026-04-21 13:11 | 11.27925 | 119.47948 | 25345 ft | 394 kts | 204° |
| 2026-04-21 13:11 | 11.25430 | 119.46793 | 24973 ft | 392 kts | 204° |
| 2026-04-21 13:11 | 11.22926 | 119.45634 | 24597 ft | 389 kts | 204° |
| 2026-04-21 13:11 | 11.20467 | 119.44495 | 24224 ft | 387 kts | 205° |
| 2026-04-21 13:12 | 11.18032 | 119.43368 | 23876 ft | 384 kts | 204° |
| 2026-04-21 13:12 | 11.15600 | 119.42243 | 23523 ft | 381 kts | 205° |
| 2026-04-21 13:12 | 11.13190 | 119.41128 | 23174 ft | 379 kts | 205° |
| 2026-04-21 13:12 | 11.10783 | 119.40015 | 22794 ft | 377 kts | 205° |
| 2026-04-21 13:13 | 11.08402 | 119.38913 | 22418 ft | 376 kts | 205° |
| 2026-04-21 13:13 | 11.06020 | 119.37811 | 22054 ft | 374 kts | 205° |
| 2026-04-21 13:13 | 11.03642 | 119.36712 | 21697 ft | 372 kts | 204° |
| 2026-04-21 13:13 | 11.01297 | 119.35628 | 21327 ft | 371 kts | 205° |
| 2026-04-21 13:14 | 10.98954 | 119.34546 | 20951 ft | 370 kts | 204° |
| 2026-04-21 13:14 | 10.96596 | 119.33456 | 20565 ft | 369 kts | 204° |
| 2026-04-21 13:14 | 10.94263 | 119.32378 | 20202 ft | 368 kts | 204° |
| 2026-04-21 13:14 | 10.91925 | 119.31297 | 19845 ft | 367 kts | 204° |
| 2026-04-21 13:15 | 10.89574 | 119.30212 | 19468 ft | 367 kts | 204° |
| 2026-04-21 13:15 | 10.87246 | 119.29137 | 19071 ft | 367 kts | 204° |
| 2026-04-21 13:15 | 10.84898 | 119.28052 | 18695 ft | 366 kts | 204° |
| 2026-04-21 13:15 | 10.82602 | 119.26992 | 18340 ft | 365 kts | 204° |
| 2026-04-21 13:16 | 10.80284 | 119.25921 | 17980 ft | 364 kts | 204° |
| 2026-04-21 13:16 | 10.77980 | 119.24857 | 17610 ft | 363 kts | 204° |
| 2026-04-21 13:16 | 10.75677 | 119.23795 | 17242 ft | 362 kts | 204° |
| 2026-04-21 13:16 | 10.73379 | 119.22736 | 16877 ft | 362 kts | 204° |
| 2026-04-21 13:17 | 10.71071 | 119.21674 | 16503 ft | 361 kts | 204° |
| 2026-04-21 13:17 | 10.68802 | 119.20626 | 16138 ft | 360 kts | 204° |
| 2026-04-21 13:17 | 10.66506 | 119.19568 | 15770 ft | 360 kts | 204° |
| 2026-04-21 13:17 | 10.64211 | 119.18509 | 15395 ft | 359 kts | 204° |
| 2026-04-21 13:18 | 10.61954 | 119.17469 | 15028 ft | 358 kts | 204° |
| 2026-04-21 13:18 | 10.59679 | 119.16420 | 14662 ft | 357 kts | 204° |
| 2026-04-21 13:18 | 10.57409 | 119.15372 | 14296 ft | 356 kts | 204° |
| 2026-04-21 13:18 | 10.55162 | 119.14339 | 13939 ft | 355 kts | 204° |
| 2026-04-21 13:19 | 10.52880 | 119.13288 | 13569 ft | 354 kts | 204° |
| 2026-04-21 13:19 | 10.50654 | 119.12264 | 13203 ft | 353 kts | 204° |
| 2026-04-21 13:19 | 10.48404 | 119.11227 | 12838 ft | 352 kts | 204° |
| 2026-04-21 13:19 | 10.46178 | 119.10201 | 12477 ft | 351 kts | 204° |
| 2026-04-21 13:20 | 10.43961 | 119.09178 | 12110 ft | 350 kts | 204° |
| 2026-04-21 13:20 | 10.41719 | 119.08147 | 11744 ft | 349 kts | 204° |
| 2026-04-21 13:20 | 10.39521 | 119.07135 | 11387 ft | 348 kts | 204° |
| 2026-04-21 13:20 | 10.37297 | 119.06112 | 11065 ft | 345 kts | 204° |
| 2026-04-21 13:21 | 10.35183 | 119.05053 | 11005 ft | 333 kts | 208° |
| 2026-04-21 13:21 | 10.33247 | 119.03831 | 10889 ft | 325 kts | 214° |
| 2026-04-21 13:21 | 10.31430 | 119.02496 | 10678 ft | 320 kts | 216° |
| 2026-04-21 13:21 | 10.29650 | 119.01150 | 10473 ft | 315 kts | 216° |
| 2026-04-21 13:22 | 10.27898 | 118.99824 | 10244 ft | 312 kts | 216° |
| 2026-04-21 13:22 | 10.26158 | 118.98508 | 10013 ft | 309 kts | 216° |
| 2026-04-21 13:22 | 10.24427 | 118.97205 | 9707 ft | 309 kts | 216° |
| 2026-04-21 13:22 | 10.22688 | 118.95899 | 9403 ft | 308 kts | 216° |
| 2026-04-21 13:23 | 10.20965 | 118.94606 | 9107 ft | 308 kts | 216° |
| 2026-04-21 13:23 | 10.19246 | 118.93314 | 8815 ft | 307 kts | 215° |
| 2026-04-21 13:23 | 10.17515 | 118.92017 | 8520 ft | 306 kts | 215° |
| 2026-04-21 13:23 | 10.15794 | 118.90727 | 8230 ft | 305 kts | 215° |
| 2026-04-21 13:24 | 10.13995 | 118.89612 | 7904 ft | 302 kts | 196° |
| 2026-04-21 13:24 | 10.11938 | 118.89461 | 7612 ft | 294 kts | 166° |
| 2026-04-21 13:24 | 10.10002 | 118.90036 | 7348 ft | 291 kts | 159° |
| 2026-04-21 13:24 | 10.08080 | 118.90697 | 7136 ft | 287 kts | 159° |
| 2026-04-21 13:25 | 10.06201 | 118.91326 | 6820 ft | 282 kts | 160° |
| 2026-04-21 13:25 | 10.04331 | 118.91919 | 6531 ft | 274 kts | 160° |
| 2026-04-21 13:25 | 10.02524 | 118.92471 | 6266 ft | 267 kts | 160° |
| 2026-04-21 13:25 | 10.00747 | 118.93005 | 6006 ft | 260 kts | 160° |
| 2026-04-21 13:26 | 9.99047 | 118.93513 | 5753 ft | 254 kts | 160° |
| 2026-04-21 13:26 | 9.97359 | 118.94016 | 5498 ft | 248 kts | 160° |
| 2026-04-21 13:26 | 9.95718 | 118.94503 | 5259 ft | 242 kts | 160° |
| 2026-04-21 13:26 | 9.94108 | 118.94984 | 5021 ft | 237 kts | 160° |
| 2026-04-21 13:27 | 9.92538 | 118.95451 | 4789 ft | 231 kts | 160° |
| 2026-04-21 13:27 | 9.91009 | 118.95907 | 4559 ft | 225 kts | 160° |
| 2026-04-21 13:27 | 9.89517 | 118.96352 | 4337 ft | 218 kts | 160° |
| 2026-04-21 13:27 | 9.88080 | 118.96781 | 4128 ft | 212 kts | 160° |
| 2026-04-21 13:28 | 9.86670 | 118.97201 | 3922 ft | 207 kts | 160° |
| 2026-04-21 13:28 | 9.85309 | 118.97605 | 3717 ft | 201 kts | 160° |
| 2026-04-21 13:28 | 9.83966 | 118.98005 | 3523 ft | 196 kts | 159° |
| 2026-04-21 13:28 | 9.82665 | 118.98379 | 3340 ft | 193 kts | 163° |
| 2026-04-21 13:29 | 9.81345 | 118.98609 | 3144 ft | 191 kts | 171° |
| 2026-04-21 13:29 | 9.80009 | 118.98654 | 2969 ft | 190 kts | 178° |
| 2026-04-21 13:29 | 9.78677 | 118.98600 | 2791 ft | 190 kts | 179° |
| 2026-04-21 13:29 | 9.77363 | 118.98537 | 2661 ft | 188 kts | 179° |
| 2026-04-21 13:30 | 9.76030 | 118.98473 | 2671 ft | 190 kts | 179° |
| 2026-04-21 13:30 | 9.74735 | 118.98232 | 2656 ft | 187 kts | 204° |
| 2026-04-21 13:30 | 9.73758 | 118.97424 | 2640 ft | 183 kts | 234° |
| 2026-04-21 13:30 | 9.73274 | 118.96227 | 2622 ft | 184 kts | 264° |
| 2026-04-21 13:31 | 9.73269 | 118.94946 | 2610 ft | 177 kts | 274° |
| 2026-04-21 13:31 | 9.73355 | 118.93762 | 2563 ft | 160 kts | 275° |
| 2026-04-21 13:31 | 9.73442 | 118.92642 | 2558 ft | 158 kts | 275° |
| 2026-04-21 13:31 | 9.73517 | 118.91517 | 2545 ft | 160 kts | 274° |
| 2026-04-21 13:32 | 9.73580 | 118.90400 | 2486 ft | 160 kts | 274° |
| 2026-04-21 13:32 | 9.73635 | 118.89267 | 2291 ft | 160 kts | 273° |
| 2026-04-21 13:32 | 9.73686 | 118.88152 | 2084 ft | 159 kts | 273° |
| 2026-04-21 13:32 | 9.73735 | 118.87024 | 1883 ft | 157 kts | 273° |
| 2026-04-21 13:33 | 9.73782 | 118.85929 | 1681 ft | 156 kts | 273° |
| 2026-04-21 13:33 | 9.73830 | 118.84831 | 1475 ft | 154 kts | 273° |
| 2026-04-21 13:33 | 9.73877 | 118.83743 | 1284 ft | 154 kts | 273° |
| 2026-04-21 13:33 | 9.73925 | 118.82656 | 1087 ft | 153 kts | 272° |
| 2026-04-21 13:34 | 9.73972 | 118.81580 | 893 ft | 153 kts | 272° |
| 2026-04-21 13:34 | 9.74019 | 118.80496 | 696 ft | 152 kts | 271° |
| 2026-04-21 13:34 | 9.74058 | 118.79427 | 509 ft | 151 kts | 271° |
| 2026-04-21 13:34 | 9.74099 | 118.78368 | 332 ft | 150 kts | 272° |
| 2026-04-21 13:35 | 9.74150 | 118.77311 | 142 ft | 149 kts | 271° |
| 2026-04-21 13:35 | 9.74187 | 118.76281 | 85 ft | 135 kts | 275° |
| 2026-04-21 13:35 | 9.74223 | 118.75524 | 84 ft | 83 kts | 272° |
| 2026-04-21 13:35 | 9.74244 | 118.75069 | 84 ft | 52 kts | 273° |
| 2026-04-21 13:36 | 9.74254 | 118.74821 | 84 ft | 22 kts | 273° |
| 2026-04-21 13:36 | 9.74267 | 118.74729 | 84 ft | 10 kts | 303° |
| 2026-04-21 13:36 | 9.74332 | 118.74706 | 84 ft | 10 kts | 360° |
| 2026-04-21 13:36 | 9.74400 | 118.74719 | 84 ft | 9 kts | 37° |
| 2026-04-21 13:37 | 9.74423 | 118.74787 | 84 ft | 11 kts | 89° |
| 2026-04-21 13:37 | 9.74422 | 118.74870 | 84 ft | 12 kts | 91° |
| 2026-04-21 13:37 | 9.74419 | 118.74955 | 84 ft | 8 kts | 92° |
| 2026-04-21 13:37 | 9.74434 | 118.74985 | 84 ft | 5 kts | 29° |
| 2026-04-21 13:38 | 9.74470 | 118.74994 | 84 ft | 4 kts | 6° |
| 2026-04-21 13:38 | 9.74499 | 118.74996 | 84 ft | 2 kts | 3° |
| 2026-04-21 13:38 | 9.74501 | 118.74996 | 84 ft | 0 kts | 3° |